createdAt,value
2023-02-11T00:01:16.543Z,8.67
2023-02-11T00:03:43.834Z,8.66
2023-02-11T00:06:11.617Z,8.63
2023-02-11T00:08:39.580Z,8.60
2023-02-11T00:11:08.246Z,8.60
2023-02-11T00:13:35.296Z,8.49
2023-02-11T00:16:10.470Z,8.48
2023-02-11T00:18:37.613Z,8.47
2023-02-11T00:21:09.443Z,8.52
2023-02-11T00:23:37.356Z,8.44
2023-02-11T00:26:11.667Z,8.38
2023-02-11T00:28:40.435Z,8.38
2023-02-11T00:31:10.912Z,8.40
2023-02-11T00:33:38.226Z,8.38
2023-02-11T00:36:08.350Z,8.37
2023-02-11T00:38:35.398Z,8.35
2023-02-11T00:41:02.366Z,8.35
2023-02-11T00:43:29.435Z,8.29
2023-02-11T00:45:57.040Z,8.26
2023-02-11T00:48:24.075Z,8.24
2023-02-11T00:50:51.008Z,8.23
2023-02-11T00:53:18.057Z,8.24
2023-02-11T00:55:45.043Z,8.23
2023-02-11T00:58:11.998Z,8.22
2023-02-11T01:00:38.933Z,8.22
2023-02-11T01:03:06.386Z,8.20
2023-02-11T01:05:33.523Z,8.19
2023-02-11T01:08:00.527Z,8.16
2023-02-11T01:10:28.858Z,8.13
2023-02-11T01:12:56.010Z,8.09
2023-02-11T01:15:25.490Z,8.06
2023-02-11T01:17:52.563Z,8.02
2023-02-11T01:20:23.494Z,7.99
2023-02-11T01:22:50.441Z,7.96
2023-02-11T01:25:17.642Z,7.94
2023-02-11T01:27:44.808Z,7.92
2023-02-11T01:30:14.823Z,7.88
2023-02-11T01:32:41.803Z,7.83
2023-02-11T01:35:08.960Z,7.82
2023-02-11T01:37:36.590Z,7.79
2023-02-11T01:40:06.149Z,7.78
2023-02-11T01:42:34.734Z,7.75
2023-02-11T01:45:24.861Z,7.73
2023-02-11T01:47:51.815Z,7.67
2023-02-11T01:50:18.928Z,7.64
2023-02-11T01:52:48.061Z,7.60
2023-02-11T01:55:34.957Z,7.60
2023-02-11T01:58:05.325Z,7.55
2023-02-11T02:00:38.115Z,7.54
2023-02-11T02:03:16.534Z,7.51
2023-02-11T02:06:08.120Z,7.47
2023-02-11T02:09:09.676Z,7.42
2023-02-11T02:11:37.227Z,7.39
2023-02-11T02:14:04.349Z,7.35
2023-02-11T02:16:36.994Z,7.32
2023-02-11T02:19:25.526Z,7.25
2023-02-11T02:22:40.971Z,7.23
2023-02-11T02:25:14.097Z,7.19
2023-02-11T02:28:16.548Z,7.20
2023-02-11T02:31:17.457Z,7.14
2023-02-11T02:34:02.126Z,7.11
2023-02-11T02:36:55.638Z,7.09
2023-02-11T02:39:27.162Z,7.11
2023-02-11T02:41:58.972Z,7.12
2023-02-11T02:44:26.318Z,7.15
2023-02-11T02:46:53.386Z,7.15
2023-02-11T02:49:20.351Z,7.10
2023-02-11T02:52:08.854Z,7.10
2023-02-11T02:55:09.430Z,7.03
2023-02-11T02:58:08.914Z,7.02
2023-02-11T03:00:53.852Z,6.93
2023-02-11T03:03:44.479Z,6.96
2023-02-11T03:06:21.239Z,6.93
2023-02-11T03:09:40.693Z,6.94
2023-02-11T03:12:08.638Z,6.92
2023-02-11T03:14:37.634Z,6.93
2023-02-11T03:17:07.373Z,6.89
2023-02-11T03:19:44.461Z,6.84
2023-02-11T03:22:20.276Z,6.84
2023-02-11T03:24:47.861Z,6.84
2023-02-11T03:27:30.954Z,6.84
2023-02-11T03:30:16.750Z,6.86
2023-02-11T03:32:53.950Z,6.82
2023-02-11T03:35:45.883Z,6.81
2023-02-11T03:38:20.116Z,6.82
2023-02-11T03:40:47.801Z,6.74
2023-02-11T03:43:33.822Z,6.70
2023-02-11T03:46:02.756Z,6.73
2023-02-11T03:48:45.015Z,6.70
2023-02-11T03:51:14.300Z,6.70
2023-02-11T03:53:44.651Z,6.68
2023-02-11T03:56:17.712Z,6.65
2023-02-11T03:58:45.990Z,6.56
2023-02-11T04:01:13.061Z,6.56
2023-02-11T04:03:40.249Z,6.58
2023-02-11T04:06:08.310Z,6.58
2023-02-11T04:08:35.506Z,6.58
2023-02-11T04:11:02.471Z,6.56
2023-02-11T04:13:30.380Z,6.49
2023-02-11T04:15:57.497Z,6.47
2023-02-11T04:18:24.585Z,6.47
2023-02-11T04:20:51.768Z,6.49
2023-02-11T04:23:18.763Z,6.44
2023-02-11T04:25:45.714Z,6.45
2023-02-11T04:28:14.261Z,6.43
2023-02-11T04:30:41.258Z,6.46
2023-02-11T04:33:08.187Z,6.44
2023-02-11T04:35:35.093Z,6.43
2023-02-11T04:38:02.032Z,6.39
2023-02-11T04:40:29.073Z,6.36
2023-02-11T04:42:56.012Z,6.33
2023-02-11T04:45:23.277Z,6.32
2023-02-11T04:47:50.417Z,6.30
2023-02-11T04:50:17.888Z,6.31
2023-02-11T04:52:44.898Z,6.29
2023-02-11T04:55:12.779Z,6.24
2023-02-11T04:57:39.726Z,6.24
2023-02-11T05:00:08.337Z,6.26
2023-02-11T05:02:35.297Z,6.22
2023-02-11T05:05:02.629Z,6.22
2023-02-11T05:07:29.786Z,6.21
2023-02-11T05:09:56.876Z,6.19
2023-02-11T05:12:23.960Z,6.17
2023-02-11T05:14:54.127Z,6.16
2023-02-11T05:17:23.789Z,6.13
2023-02-11T05:19:50.672Z,6.09
2023-02-11T05:22:17.728Z,6.04
2023-02-11T05:24:44.758Z,6.02
2023-02-11T05:27:11.777Z,5.99
2023-02-11T05:29:38.968Z,5.96
2023-02-11T05:32:07.430Z,5.95
2023-02-11T05:34:34.511Z,5.94
2023-02-11T05:37:01.482Z,5.91
2023-02-11T05:39:28.504Z,5.90
2023-02-11T05:41:55.494Z,5.90
2023-02-11T05:44:22.458Z,5.87
2023-02-11T05:46:49.708Z,5.87
2023-02-11T05:49:17.820Z,5.89
2023-02-11T05:51:44.857Z,5.89
2023-02-11T05:54:12.384Z,5.91
2023-02-11T05:56:39.538Z,5.86
2023-02-11T05:59:06.498Z,5.87
2023-02-11T06:01:33.500Z,5.88
2023-02-11T06:04:00.609Z,5.90
2023-02-11T06:06:27.737Z,5.90
2023-02-11T06:08:54.633Z,5.93
2023-02-11T06:11:21.584Z,5.91
2023-02-11T06:13:48.576Z,5.92
2023-02-11T06:16:15.675Z,5.92
2023-02-11T06:18:42.951Z,5.91
2023-02-11T06:21:11.264Z,5.92
2023-02-11T06:23:38.668Z,5.92
2023-02-11T06:26:08.051Z,5.88
2023-02-11T06:28:36.329Z,5.88
2023-02-11T06:31:08.013Z,5.86
2023-02-11T06:33:36.094Z,5.88
2023-02-11T06:36:03.645Z,5.87
2023-02-11T06:38:30.747Z,5.86
2023-02-11T06:40:57.632Z,5.81
2023-02-11T06:43:24.544Z,5.83
2023-02-11T06:45:55.670Z,5.81
2023-02-11T06:48:23.972Z,5.81
2023-02-11T06:50:50.918Z,5.78
2023-02-11T06:53:17.879Z,5.78
2023-02-11T06:55:44.837Z,5.79
2023-02-11T06:58:11.793Z,5.81
2023-02-11T07:00:39.009Z,5.92
2023-02-11T07:03:06.025Z,6.15
2023-02-11T07:05:34.462Z,6.43
2023-02-11T07:08:01.517Z,6.78
2023-02-11T07:10:28.432Z,7.16
2023-02-11T07:12:57.775Z,7.54
2023-02-11T07:15:25.890Z,8.00
2023-02-11T07:17:52.823Z,8.41
2023-02-11T07:20:20.051Z,8.89
2023-02-11T07:22:47.025Z,9.37
2023-02-11T07:25:14.050Z,9.86
2023-02-11T07:27:41.162Z,10.35
2023-02-11T07:30:09.493Z,10.93
2023-02-11T07:32:36.449Z,11.26
2023-02-11T07:35:04.765Z,11.56
2023-02-11T07:37:34.576Z,11.89
2023-02-11T07:40:01.714Z,12.22
2023-02-11T07:42:28.649Z,12.65
2023-02-11T07:44:55.520Z,13.03
2023-02-11T07:47:22.460Z,13.45
2023-02-11T07:49:52.186Z,13.87
2023-02-11T07:52:23.190Z,14.29
2023-02-11T07:54:50.165Z,14.67
2023-02-11T07:57:17.139Z,15.09
2023-02-11T07:59:44.095Z,15.53
2023-02-11T08:02:11.828Z,15.99
2023-02-11T08:04:39.068Z,16.30
2023-02-11T08:07:08.671Z,16.75
2023-02-11T08:09:35.718Z,17.20
2023-02-11T08:12:02.742Z,17.49
2023-02-11T08:14:29.885Z,17.94
2023-02-11T08:16:56.860Z,18.36
2023-02-11T08:19:24.134Z,18.65
2023-02-11T08:21:51.297Z,19.12
2023-02-11T08:24:18.261Z,19.56
2023-02-11T08:26:45.297Z,19.90
2023-02-11T08:29:13.873Z,20.37
2023-02-11T08:31:43.889Z,20.57
2023-02-11T08:34:14.239Z,20.98
2023-02-11T08:36:45.949Z,21.51
2023-02-11T08:39:20.631Z,21.92
2023-02-11T08:41:49.730Z,22.30
2023-02-11T08:44:18.668Z,22.71
2023-02-11T08:46:46.091Z,22.87
2023-02-11T08:49:13.192Z,23.05
2023-02-11T08:51:40.240Z,23.45
2023-02-11T08:54:10.110Z,23.92
2023-02-11T08:56:38.708Z,24.28
2023-02-11T08:59:06.322Z,24.85
2023-02-11T09:01:34.008Z,25.11
2023-02-11T09:04:01.356Z,25.69
2023-02-11T09:06:28.810Z,25.91
2023-02-11T09:08:58.082Z,26.28
2023-02-11T09:11:32.240Z,26.67
2023-02-11T09:14:00.217Z,26.88
2023-02-11T09:16:30.312Z,27.27
2023-02-11T09:18:58.624Z,27.56
2023-02-11T09:21:26.104Z,28.05
2023-02-11T09:23:53.425Z,28.51
2023-02-11T09:26:27.415Z,28.91
2023-02-11T09:28:55.227Z,29.22
2023-02-11T09:31:25.619Z,29.56
2023-02-11T09:33:56.033Z,29.87
2023-02-11T09:36:29.481Z,30.22
2023-02-11T09:38:58.927Z,30.43
2023-02-11T09:41:37.739Z,30.65
2023-02-11T09:44:08.187Z,31.05
2023-02-11T09:46:40.137Z,31.47
2023-02-11T09:49:08.367Z,31.68
2023-02-11T09:51:44.411Z,32.09
2023-02-11T09:54:24.873Z,32.02
2023-02-11T09:56:51.773Z,32.48
2023-02-11T09:59:18.898Z,32.71
2023-02-11T10:01:59.084Z,32.78
2023-02-11T10:04:41.431Z,33.12
2023-02-11T10:07:19.637Z,33.50
2023-02-11T10:10:03.080Z,33.51
2023-02-11T10:12:48.382Z,33.61
2023-02-11T10:15:24.186Z,33.88
2023-02-11T10:18:14.329Z,33.82
2023-02-11T10:20:56.403Z,34.05
2023-02-11T10:23:29.691Z,34.26
2023-02-11T10:25:59.104Z,34.32
2023-02-11T10:28:35.192Z,34.58
2023-02-11T10:31:21.470Z,33.83
2023-02-11T10:34:03.689Z,34.30
2023-02-11T10:36:34.074Z,34.19
2023-02-11T10:39:14.265Z,34.18
2023-02-11T10:41:53.116Z,33.95
2023-02-11T10:44:28.973Z,34.33
2023-02-11T10:46:57.766Z,34.62
2023-02-11T10:49:40.583Z,34.52
2023-02-11T10:52:25.675Z,34.62
2023-02-11T10:55:01.867Z,34.75
2023-02-11T10:57:46.505Z,34.64
2023-02-11T11:00:28.449Z,34.34
2023-02-11T11:03:18.793Z,33.97
2023-02-11T11:05:58.834Z,33.38
2023-02-11T11:08:42.303Z,33.54
2023-02-11T11:11:18.959Z,33.26
2023-02-11T11:14:00.385Z,33.24
2023-02-11T11:16:28.327Z,32.94
2023-02-11T11:19:07.665Z,32.86
2023-02-11T11:21:42.066Z,32.73
2023-02-11T11:24:41.834Z,31.61
2023-02-11T11:27:19.728Z,30.72
2023-02-11T11:29:54.691Z,30.50
2023-02-11T11:32:26.948Z,29.93
2023-02-11T11:34:56.878Z,29.16
2023-02-11T11:37:27.720Z,28.17
2023-02-11T11:40:16.285Z,26.99
2023-02-11T11:42:43.378Z,25.33
2023-02-11T11:45:15.749Z,24.61
2023-02-11T11:48:11.412Z,23.56
2023-02-11T11:50:45.635Z,22.69
2023-02-11T11:53:21.661Z,22.36
2023-02-11T11:56:00.756Z,21.68
2023-02-11T11:58:29.311Z,21.34
2023-02-11T12:01:14.710Z,20.68
2023-02-11T12:03:48.889Z,19.92
2023-02-11T12:06:30.984Z,19.84
2023-02-11T12:09:22.418Z,19.48
2023-02-11T12:12:21.080Z,19.19
2023-02-11T12:15:08.653Z,19.01
2023-02-11T12:18:05.378Z,18.73
2023-02-11T12:20:51.688Z,18.36
2023-02-11T12:23:37.416Z,17.92
2023-02-11T12:26:28.951Z,17.62
2023-02-11T12:29:28.117Z,17.81
2023-02-11T12:32:27.009Z,17.43
2023-02-11T12:35:32.746Z,16.99
2023-02-11T12:38:26.008Z,16.40
2023-02-11T12:41:15.434Z,16.30
2023-02-11T12:43:44.724Z,16.06
2023-02-11T12:46:39.433Z,16.42
2023-02-11T12:49:25.581Z,15.92
2023-02-11T12:52:02.282Z,16.02
2023-02-11T12:54:40.003Z,16.03
2023-02-11T12:57:21.484Z,15.79
2023-02-11T13:00:15.427Z,15.33
2023-02-11T13:03:00.084Z,15.36
2023-02-11T13:05:49.705Z,15.15
2023-02-11T13:08:23.142Z,15.31
2023-02-11T13:10:57.973Z,15.31
2023-02-11T13:13:46.336Z,15.22
2023-02-11T13:16:26.459Z,15.21
2023-02-11T13:19:18.347Z,15.39
2023-02-11T13:22:00.354Z,15.26
2023-02-11T13:24:51.742Z,15.23
2023-02-11T13:27:43.986Z,14.75
2023-02-11T13:30:34.674Z,14.76
2023-02-11T13:33:01.689Z,14.71
2023-02-11T13:35:38.509Z,14.75
2023-02-11T13:38:17.946Z,14.60
2023-02-11T13:40:45.937Z,14.53
2023-02-11T13:43:24.547Z,14.55
2023-02-11T13:45:57.575Z,14.49
2023-02-11T13:48:27.938Z,14.36
2023-02-11T13:51:00.045Z,14.31
2023-02-11T13:53:28.247Z,14.23
2023-02-11T13:56:09.509Z,14.10
2023-02-11T13:58:46.677Z,14.17
2023-02-11T14:02:20.719Z,14.36
2023-02-11T14:05:24.607Z,14.30
2023-02-11T14:08:28.106Z,14.17
2023-02-11T14:11:24.375Z,14.45
2023-02-11T14:13:51.199Z,14.32
2023-02-11T14:16:37.068Z,14.39
2023-02-11T14:19:06.381Z,14.30
2023-02-11T14:21:39.630Z,14.19
2023-02-11T14:24:07.186Z,14.19
2023-02-11T14:26:51.327Z,14.04
2023-02-11T14:29:26.374Z,14.15
2023-02-11T14:32:06.094Z,14.08
2023-02-11T14:34:35.924Z,14.07
2023-02-11T14:37:24.845Z,14.00
2023-02-11T14:40:16.709Z,14.07
2023-02-11T14:42:43.942Z,14.02
2023-02-11T14:45:18.734Z,14.08
2023-02-11T14:47:53.310Z,14.04
2023-02-11T14:50:26.198Z,13.97
2023-02-11T14:52:54.881Z,13.92
2023-02-11T14:55:34.683Z,13.92
2023-02-11T14:58:25.411Z,13.82
2023-02-11T15:01:00.968Z,13.82
2023-02-11T15:03:40.021Z,14.09
2023-02-11T15:06:31.820Z,14.23
2023-02-11T15:09:04.319Z,14.14
2023-02-11T15:11:40.176Z,14.03
2023-02-11T15:14:11.268Z,13.78
2023-02-11T15:16:44.580Z,13.84
2023-02-11T15:19:39.655Z,14.03
2023-02-11T15:22:18.380Z,14.02
2023-02-11T15:24:45.618Z,14.10
2023-02-11T15:27:16.381Z,14.19
2023-02-11T15:29:47.286Z,13.94
2023-02-11T15:32:21.795Z,13.77
2023-02-11T15:34:52.063Z,13.57
2023-02-11T15:37:25.086Z,13.52
2023-02-11T15:39:53.269Z,13.60
2023-02-11T15:42:24.860Z,13.47
2023-02-11T15:45:30.917Z,13.53
2023-02-11T15:48:05.202Z,13.63
2023-02-11T15:50:36.915Z,13.60
2023-02-11T15:53:30.656Z,13.30
2023-02-11T15:56:24.584Z,13.49
2023-02-11T15:58:56.226Z,13.19
2023-02-11T16:01:37.692Z,13.35
2023-02-11T16:04:05.878Z,13.38
2023-02-11T16:06:37.457Z,13.19
2023-02-11T16:09:09.720Z,13.06
2023-02-11T16:11:46.247Z,13.08
2023-02-11T16:14:31.260Z,13.05
2023-02-11T16:17:07.311Z,12.98
2023-02-11T16:19:36.209Z,12.92
2023-02-11T16:22:10.440Z,12.97
2023-02-11T16:24:39.476Z,12.89
2023-02-11T16:27:30.405Z,12.87
2023-02-11T16:29:58.795Z,12.81
2023-02-11T16:32:28.211Z,12.77
2023-02-11T16:34:58.051Z,12.78
2023-02-11T16:37:25.560Z,12.81
2023-02-11T16:39:56.793Z,12.75
2023-02-11T16:42:23.800Z,12.80
2023-02-11T16:44:50.760Z,12.79
2023-02-11T16:47:25.154Z,12.90
2023-02-11T16:49:52.983Z,12.94
2023-02-11T16:52:21.133Z,12.87
2023-02-11T16:54:51.245Z,12.85
2023-02-11T16:57:21.221Z,12.82
2023-02-11T16:59:48.969Z,12.76
2023-02-11T17:02:20.385Z,12.70
2023-02-11T17:04:48.635Z,12.76
2023-02-11T17:07:15.548Z,12.74
2023-02-11T17:09:45.503Z,12.72
2023-02-11T17:12:12.469Z,12.62
2023-02-11T17:14:39.432Z,12.55
2023-02-11T17:17:06.511Z,12.50
2023-02-11T17:19:33.456Z,12.49
2023-02-11T17:22:00.464Z,12.46
2023-02-11T17:24:27.344Z,12.51
2023-02-11T17:26:54.997Z,12.50
2023-02-11T17:29:24.256Z,12.44
2023-02-11T17:31:52.264Z,12.41
2023-02-11T17:34:20.871Z,12.52
2023-02-11T17:36:47.813Z,12.46
2023-02-11T17:39:15.431Z,12.55
2023-02-11T17:41:42.447Z,12.57
2023-02-11T17:44:12.558Z,12.62
2023-02-11T17:46:39.703Z,12.62
2023-02-11T17:49:06.761Z,12.53
2023-02-11T17:51:36.229Z,12.55
2023-02-11T17:54:07.807Z,12.52
2023-02-11T17:56:36.589Z,12.57
2023-02-11T17:59:05.419Z,12.51
2023-02-11T18:01:33.769Z,12.46
2023-02-11T18:04:01.855Z,12.51
2023-02-11T18:06:29.319Z,12.40
2023-02-11T18:08:59.921Z,12.33
2023-02-11T18:11:28.002Z,12.32
2023-02-11T18:13:55.167Z,12.34
2023-02-11T18:16:24.108Z,12.39
2023-02-11T18:18:51.550Z,12.37
2023-02-11T18:21:20.625Z,12.33
2023-02-11T18:23:48.468Z,12.32
2023-02-11T18:26:17.897Z,12.36
2023-02-11T18:28:46.081Z,12.31
2023-02-11T18:31:14.254Z,12.22
2023-02-11T18:33:42.472Z,12.19
2023-02-11T18:36:14.398Z,12.22
2023-02-11T18:38:44.277Z,12.22
2023-02-11T18:41:12.391Z,12.13
2023-02-11T18:43:40.245Z,12.12
2023-02-11T18:46:09.936Z,12.06
2023-02-11T18:48:38.100Z,12.00
2023-02-11T18:51:23.596Z,12.04
2023-02-11T18:53:50.710Z,11.94
2023-02-11T18:56:20.779Z,11.85
2023-02-11T18:58:48.634Z,11.89
2023-02-11T19:01:19.497Z,11.87
2023-02-11T19:03:46.784Z,11.82
2023-02-11T19:06:16.428Z,11.82
2023-02-11T19:08:43.426Z,11.83
2023-02-11T19:11:10.557Z,11.89
2023-02-11T19:13:38.593Z,11.90
2023-02-11T19:16:11.525Z,11.88
2023-02-11T19:18:38.932Z,11.89
2023-02-11T19:21:10.584Z,11.94
2023-02-11T19:23:37.691Z,11.93
2023-02-11T19:26:04.948Z,11.93
2023-02-11T19:28:32.697Z,11.94
2023-02-11T19:31:06.028Z,11.93
2023-02-11T19:33:33.105Z,11.90
2023-02-11T19:36:12.348Z,11.89
2023-02-11T19:38:39.484Z,11.85
2023-02-11T19:41:06.511Z,11.80
2023-02-11T19:43:33.626Z,11.80
2023-02-11T19:46:05.035Z,11.78
2023-02-11T19:48:32.211Z,11.74
2023-02-11T19:51:06.846Z,11.72
2023-02-11T19:53:33.769Z,11.64
2023-02-11T19:56:08.610Z,11.58
2023-02-11T19:58:36.320Z,11.53
2023-02-11T20:01:08.375Z,11.47
2023-02-11T20:03:36.315Z,11.38
2023-02-11T20:06:15.154Z,11.34
2023-02-11T20:08:43.751Z,11.33
2023-02-11T20:11:13.219Z,11.30
2023-02-11T20:13:41.932Z,11.30
2023-02-11T20:16:17.104Z,11.25
2023-02-11T20:18:45.134Z,11.18
2023-02-11T20:21:18.601Z,11.10
2023-02-11T20:23:46.689Z,11.03
2023-02-11T20:26:21.913Z,11.04
2023-02-11T20:28:50.452Z,11.00
2023-02-11T20:31:18.359Z,10.98
2023-02-11T20:33:48.817Z,10.97
2023-02-11T20:36:20.636Z,10.96
2023-02-11T20:38:48.647Z,10.88
2023-02-11T20:41:19.151Z,10.84
2023-02-11T20:43:49.299Z,10.81
2023-02-11T20:46:18.130Z,10.74
2023-02-11T20:48:45.445Z,10.67
2023-02-11T20:51:19.326Z,10.60
2023-02-11T20:53:49.972Z,10.56
2023-02-11T20:56:39.018Z,10.52
2023-02-11T20:59:11.282Z,10.49
2023-02-11T21:01:41.010Z,10.44
2023-02-11T21:04:15.429Z,10.41
2023-02-11T21:06:48.396Z,10.36
2023-02-11T21:09:20.026Z,10.33
2023-02-11T21:11:48.478Z,10.28
2023-02-11T21:14:16.420Z,10.25
2023-02-11T21:16:46.542Z,10.22
2023-02-11T21:22:18.928Z,10.14
2023-02-11T21:24:45.927Z,10.06
2023-02-11T21:27:48.909Z,10.05
2023-02-11T21:30:16.349Z,10.02
2023-02-11T21:32:43.365Z,10.01
2023-02-11T21:35:10.341Z,9.98
2023-02-11T21:37:49.500Z,9.95
2023-02-11T21:40:31.399Z,9.94
2023-02-11T21:42:58.992Z,9.93
2023-02-11T21:45:28.319Z,9.89
2023-02-11T21:47:55.415Z,9.88
2023-02-11T21:50:22.599Z,9.84
2023-02-11T21:52:50.174Z,9.83
2023-02-11T21:55:20.053Z,9.81
2023-02-11T21:57:57.213Z,9.80
2023-02-11T22:00:32.420Z,9.78
2023-02-11T22:03:00.094Z,9.76
2023-02-11T22:08:14.117Z,9.69
2023-02-11T22:11:02.076Z,9.68
2023-02-11T22:13:29.320Z,9.63
2023-02-11T22:16:04.361Z,9.63
2023-02-11T22:18:31.590Z,9.59
2023-02-11T22:21:08.508Z,9.54
2023-02-11T22:23:37.453Z,9.53
2023-02-11T22:26:16.071Z,9.48
2023-02-11T22:28:43.828Z,9.43
2023-02-11T22:31:19.850Z,9.39
2023-02-11T22:33:47.333Z,9.37
2023-02-11T22:36:28.301Z,9.32
2023-02-11T22:38:56.275Z,9.30
2023-02-11T22:41:24.686Z,9.26
2023-02-11T22:43:51.951Z,9.25
2023-02-11T22:46:20.108Z,9.24
2023-02-11T22:48:48.072Z,9.20
2023-02-11T22:51:19.606Z,9.18
2023-02-11T22:53:58.028Z,9.15
2023-02-11T22:56:25.990Z,9.10
2023-02-11T22:58:53.846Z,9.11
2023-02-11T23:01:20.887Z,9.04
2023-02-11T23:03:48.180Z,9.00
2023-02-11T23:06:15.286Z,8.98
2023-02-11T23:08:45.479Z,8.95
2023-02-11T23:11:18.626Z,8.93
2023-02-11T23:13:47.055Z,8.87
2023-02-11T23:16:17.404Z,8.80
2023-02-11T23:18:46.758Z,8.70
2023-02-11T23:21:21.384Z,8.68
2023-02-11T23:23:54.035Z,8.61
2023-02-11T23:26:21.153Z,8.56
2023-02-11T23:28:48.647Z,8.57
2023-02-11T23:31:34.916Z,8.57
2023-02-11T23:34:13.166Z,8.40
2023-02-11T23:36:41.525Z,8.44
2023-02-11T23:39:11.544Z,8.45
2023-02-11T23:41:41.366Z,8.46
2023-02-11T23:44:09.876Z,8.46
2023-02-11T23:46:36.971Z,8.43
2023-02-11T23:49:04.112Z,8.39
2023-02-11T23:51:31.011Z,8.41
2023-02-11T23:53:58.047Z,8.38
2023-02-11T23:56:31.000Z,8.37
2023-02-11T23:58:59.489Z,8.29
